Time;durP1;ratioP1;P1;durP2;ratioP2;P2;SDS_P1;SDS_P2;PMS_P1;PMS_P2;Temp;Humidity;BMP_temperature;BMP_pressure;BME280_temperature;BME280_humidity;BME280_pressure;Samples;Min_cycle;Max_cycle;Signal;HPM_P1;HPM_P2
2022/03/09 00:00:23;;;;;;;1.50;1.40;;;2.50;99.90;;;;;;4989115;28;20301;-90
2022/03/09 00:02:49;;;;;;;2.00;1.57;;;2.50;99.90;;;;;;4990245;28;20303;-90
2022/03/09 00:05:14;;;;;;;1.70;1.60;;;2.50;99.90;;;;;;5017483;28;20276;-88
2022/03/09 00:07:40;;;;;;;1.63;1.40;;;2.60;99.90;;;;;;5006364;28;20655;-90
2022/03/09 00:10:07;;;;;;;0.80;0.80;;;2.60;99.90;;;;;;4982652;28;20226;-89
2022/03/09 00:12:33;;;;;;;2.83;1.17;;;2.60;99.90;;;;;;5007731;28;20215;-90
2022/03/09 00:14:59;;;;;;;1.60;1.50;;;2.40;99.90;;;;;;5007362;28;20227;-89
2022/03/09 00:17:25;;;;;;;2.23;1.20;;;2.40;99.90;;;;;;4991305;28;20218;-88
2022/03/09 00:19:51;;;;;;;1.10;1.10;;;2.50;99.90;;;;;;5005894;28;20179;-91
2022/03/09 00:22:17;;;;;;;0.77;0.73;;;2.40;99.90;;;;;;5007162;28;20289;-87
2022/03/09 00:24:43;;;;;;;2.00;1.13;;;2.30;99.90;;;;;;5004761;28;20262;-89
2022/03/09 00:27:08;;;;;;;1.20;1.17;;;2.10;99.90;;;;;;5005937;28;20536;-89
2022/03/09 00:29:34;;;;;;;0.90;0.90;;;2.00;99.90;;;;;;4989621;28;20219;-91
2022/03/09 00:32:00;;;;;;;1.27;1.20;;;1.90;99.90;;;;;;4990553;28;20192;-88
2022/03/09 00:34:26;;;;;;;1.87;1.73;;;2.00;99.90;;;;;;5005357;28;20242;-87
2022/03/09 00:36:57;;;;;;;1.30;1.20;;;2.10;99.90;;;;;;5006353;28;20219;-89
2022/03/09 00:39:23;;;;;;;0.73;0.73;;;2.10;99.90;;;;;;4982508;28;20874;-91
2022/03/09 00:41:49;;;;;;;2.77;2.57;;;2.10;99.90;;;;;;5015434;28;20217;-88
2022/03/09 00:44:15;;;;;;;2.23;2.13;;;2.20;99.90;;;;;;5006484;28;20335;-88
2022/03/09 00:46:41;;;;;;;1.43;1.43;;;2.30;99.90;;;;;;5003861;28;20325;-88
2022/03/09 00:49:07;;;;;;;1.67;1.57;;;2.40;99.90;;;;;;4962693;28;20579;-90
2022/03/09 00:51:32;;;;;;;1.03;1.03;;;2.40;99.90;;;;;;4964362;28;20652;-90
2022/03/09 00:54:01;;;;;;;0.83;0.83;;;2.50;99.90;;;;;;4977359;28;20227;-90
2022/03/09 00:56:26;;;;;;;3.23;1.20;;;2.50;99.90;;;;;;4946790;28;20496;-90
2022/03/09 00:58:52;;;;;;;1.67;1.57;;;2.50;99.90;;;;;;4976557;28;20187;-90
2022/03/09 01:01:18;;;;;;;2.00;1.90;;;2.50;99.90;;;;;;4995242;28;20723;-90
2022/03/09 01:03:44;;;;;;;1.77;1.67;;;2.40;99.90;;;;;;4997771;28;20230;-88
2022/03/09 01:06:09;;;;;;;1.20;1.20;;;2.40;99.90;;;;;;4947649;28;20299;-90
2022/03/09 01:08:35;;;;;;;1.73;1.20;;;2.40;99.90;;;;;;4962698;28;20368;-89
2022/03/09 01:11:01;;;;;;;0.97;0.97;;;2.40;99.90;;;;;;4978898;28;20199;-89
2022/03/09 01:13:27;;;;;;;1.70;1.60;;;2.40;99.90;;;;;;4944925;28;20680;-89
2022/03/09 01:15:53;;;;;;;0.87;0.87;;;2.30;99.90;;;;;;4977770;28;20224;-89
2022/03/09 01:18:19;;;;;;;3.10;1.57;;;2.30;99.90;;;;;;4962538;28;20772;-89
2022/03/09 01:20:45;;;;;;;1.37;1.30;;;2.30;99.90;;;;;;4981038;28;20223;-89
2022/03/09 01:23:11;;;;;;;2.53;2.43;;;2.20;99.90;;;;;;4979209;28;20652;-89
2022/03/09 01:25:36;;;;;;;1.23;1.17;;;2.10;99.90;;;;;;4978715;28;20199;-90
2022/03/09 01:28:02;;;;;;;1.60;1.50;;;2.10;99.90;;;;;;4993469;28;20361;-90
2022/03/09 01:30:31;;;;;;;1.00;1.00;;;2.00;99.90;;;;;;4962971;28;20331;-90
2022/03/09 01:32:57;;;;;;;1.57;1.53;;;2.10;99.90;;;;;;4946551;28;20223;-88
2022/03/09 01:35:23;;;;;;;0.70;0.70;;;2.10;99.90;;;;;;4983000;28;20314;-90
2022/03/09 01:37:49;;;;;;;1.87;1.77;;;2.00;99.90;;;;;;4983706;28;20199;-91
2022/03/09 01:40:15;;;;;;;2.07;1.97;;;2.10;99.90;;;;;;4984810;28;20720;-88
2022/03/09 01:42:42;;;;;;;2.63;1.80;;;2.10;99.90;;;;;;4998329;28;20220;-88
2022/03/09 01:45:11;;;;;;;0.90;0.90;;;2.10;99.90;;;;;;4964303;28;20560;-91
2022/03/09 01:47:37;;;;;;;2.57;1.43;;;2.10;99.90;;;;;;5015864;28;20265;-90
2022/03/09 01:50:05;;;;;;;1.03;0.80;;;2.10;99.90;;;;;;5005072;28;20186;-90
2022/03/09 01:52:31;;;;;;;0.70;0.70;;;2.10;99.90;;;;;;5014637;28;20249;-89
2022/03/09 01:55:02;;;;;;;1.10;1.10;;;2.20;99.90;;;;;;5004095;28;20211;-91
2022/03/09 01:57:30;;;;;;;1.50;1.43;;;2.10;99.90;;;;;;5004589;28;20226;-89
2022/03/09 01:59:56;;;;;;;1.70;1.57;;;2.20;99.90;;;;;;5005902;28;20272;-90
2022/03/09 02:02:21;;;;;;;2.80;2.10;;;2.30;99.90;;;;;;4988594;28;20572;-90
2022/03/09 02:04:51;;;;;;;1.57;1.17;;;2.20;99.90;;;;;;4994719;28;20196;-90
2022/03/09 02:07:17;;;;;;;1.37;1.27;;;2.20;99.90;;;;;;4987705;28;20187;-89
2022/03/09 02:09:46;;;;;;;2.03;1.93;;;2.30;99.90;;;;;;5004112;28;20222;-90
2022/03/09 02:12:19;;;;;;;1.43;1.37;;;2.30;99.90;;;;;;4988053;28;20241;-88
2022/03/09 02:14:48;;;;;;;1.17;1.17;;;2.20;99.90;;;;;;5014544;28;20244;-91
2022/03/09 02:17:20;;;;;;;0.63;0.63;;;2.20;99.90;;;;;;5019066;28;20219;-91
2022/03/09 02:19:48;;;;;;;2.77;2.40;;;2.20;99.90;;;;;;5003932;28;20257;-88
2022/03/09 02:22:19;;;;;;;1.13;1.13;;;2.20;99.90;;;;;;5003652;28;20561;-90
2022/03/09 02:24:47;;;;;;;1.20;1.10;;;2.20;99.90;;;;;;5004565;28;20356;-91
2022/03/09 02:27:13;;;;;;;2.03;1.87;;;2.20;99.90;;;;;;5003737;28;20260;-90
2022/03/09 02:29:39;;;;;;;1.50;1.40;;;2.20;99.90;;;;;;5005339;28;20215;-92
2022/03/09 02:32:06;;;;;;;3.03;2.57;;;2.10;99.90;;;;;;5005664;28;20222;-89
2022/03/09 02:34:32;;;;;;;2.13;1.87;;;2.00;99.90;;;;;;5005071;28;20269;-90
2022/03/09 02:36:58;;;;;;;0.93;0.93;;;2.00;99.90;;;;;;4986424;28;20223;-90
2022/03/09 02:39:24;;;;;;;3.47;2.03;;;1.90;99.90;;;;;;4987238;28;20219;-88
2022/03/09 02:41:50;;;;;;;1.50;1.50;;;2.00;99.90;;;;;;5013683;28;20257;-90
2022/03/09 02:44:16;;;;;;;2.17;2.00;;;2.10;99.90;;;;;;5003190;28;20383;-90
2022/03/09 02:46:42;;;;;;;3.17;2.10;;;2.00;99.90;;;;;;5002999;28;20564;-89
2022/03/09 02:49:08;;;;;;;1.13;1.13;;;1.90;99.90;;;;;;5013822;28;20523;-90
2022/03/09 02:51:33;;;;;;;1.53;1.43;;;1.90;99.90;;;;;;5020655;28;20215;-90
2022/03/09 02:53:59;;;;;;;1.20;1.10;;;1.80;99.90;;;;;;5013450;28;20227;-90
2022/03/09 02:56:25;;;;;;;1.50;1.20;;;1.50;99.90;;;;;;5012128;28;20275;-88
2022/03/09 02:58:51;;;;;;;1.20;1.20;;;1.30;99.90;;;;;;5002755;28;20265;-90
2022/03/09 03:01:17;;;;;;;0.83;0.83;;;1.30;99.90;;;;;;5014126;28;20191;-89
2022/03/09 03:03:44;;;;;;;0.90;0.90;;;1.40;99.90;;;;;;5012468;28;20229;-89
2022/03/09 03:06:10;;;;;;;1.77;1.40;;;1.40;99.90;;;;;;5013230;28;20305;-90
2022/03/09 03:08:38;;;;;;;1.23;1.23;;;1.30;99.90;;;;;;5014883;28;20219;-90
2022/03/09 03:11:05;;;;;;;2.37;1.27;;;1.40;99.90;;;;;;5003759;28;20678;-91
2022/03/09 03:13:31;;;;;;;3.63;1.53;;;1.40;99.90;;;;;;5005105;28;20257;-90
2022/03/09 03:15:56;;;;;;;0.80;0.80;;;1.50;99.90;;;;;;5002446;28;20210;-90
2022/03/09 03:18:22;;;;;;;0.80;0.80;;;1.50;99.90;;;;;;4986933;28;20862;-90
2022/03/09 03:20:54;;;;;;;1.37;1.20;;;1.40;99.90;;;;;;5014518;28;20227;-89
2022/03/09 03:23:23;;;;;;;1.23;1.00;;;1.60;99.90;;;;;;5019490;28;20226;-89
2022/03/09 03:25:53;;;;;;;2.20;1.43;;;1.70;99.90;;;;;;5003174;28;20198;-90
2022/03/09 03:28:22;;;;;;;4.43;2.97;;;1.70;99.90;;;;;;4986619;28;20286;-91
2022/03/09 03:30:49;;;;;;;1.83;1.73;;;1.60;99.90;;;;;;5003983;28;20222;-85
2022/03/09 03:33:16;;;;;;;1.17;1.00;;;1.50;99.90;;;;;;4985977;28;20223;-88
2022/03/09 03:35:42;;;;;;;6.77;2.63;;;1.10;99.90;;;;;;5002805;28;20707;-91
2022/03/09 03:38:09;;;;;;;0.90;0.90;;;0.90;99.90;;;;;;4985315;28;20223;-90
2022/03/09 03:40:36;;;;;;;2.00;1.83;;;0.90;99.90;;;;;;5003403;28;20654;-90
2022/03/09 03:43:02;;;;;;;0.90;0.90;;;1.00;99.90;;;;;;5001487;28;20905;-90
2022/03/09 03:45:30;;;;;;;0.80;0.80;;;1.10;99.90;;;;;;4985322;28;20250;-89
2022/03/09 03:47:57;;;;;;;1.47;1.40;;;1.20;99.90;;;;;;4993001;28;20691;-91
2022/03/09 03:50:23;;;;;;;1.10;1.10;;;1.30;99.90;;;;;;4992941;28;20212;-90
2022/03/09 03:52:49;;;;;;;1.27;1.17;;;1.40;99.90;;;;;;4992678;28;20212;-89
2022/03/09 03:55:15;;;;;;;1.67;1.30;;;1.40;99.90;;;;;;4959771;28;20282;-89
2022/03/09 03:57:40;;;;;;;3.87;1.17;;;1.40;99.90;;;;;;4975910;28;20616;-89
2022/03/09 04:00:08;;;;;;;2.77;2.43;;;1.40;99.90;;;;;;4991215;28;20216;-87
2022/03/09 04:02:34;;;;;;;1.83;1.73;;;1.40;99.90;;;;;;4991196;28;20239;-88
2022/03/09 04:05:00;;;;;;;1.67;0.83;;;1.40;99.90;;;;;;4974420;28;20196;-89
2022/03/09 04:07:26;;;;;;;3.33;1.43;;;1.30;99.90;;;;;;4978339;28;20279;-89
2022/03/09 04:09:52;;;;;;;1.83;1.70;;;1.40;99.90;;;;;;4993129;28;20301;-89
2022/03/09 04:12:18;;;;;;;1.57;1.47;;;1.40;99.90;;;;;;4977025;28;20279;-89
2022/03/09 04:14:44;;;;;;;2.07;1.97;;;1.30;99.90;;;;;;4979060;28;20264;-89
2022/03/09 04:17:10;;;;;;;2.70;2.50;;;1.30;99.90;;;;;;4966319;28;20694;-89
2022/03/09 04:19:36;;;;;;;1.30;0.93;;;1.20;99.90;;;;;;4994608;28;20199;-91
2022/03/09 04:22:02;;;;;;;2.40;2.20;;;1.20;99.90;;;;;;4979313;28;20235;-89
2022/03/09 04:24:28;;;;;;;1.90;1.80;;;1.20;99.90;;;;;;4994061;28;20321;-90
2022/03/09 04:26:56;;;;;;;2.50;2.30;;;1.20;99.90;;;;;;4981119;28;20234;-89
2022/03/09 04:29:22;;;;;;;1.60;1.50;;;1.20;99.90;;;;;;4995177;28;20235;-90
2022/03/09 04:31:48;;;;;;;0.70;0.70;;;1.20;99.90;;;;;;4976988;28;20196;-88
2022/03/09 04:34:13;;;;;;;1.13;1.13;;;1.20;99.90;;;;;;4980064;28;20600;-90
2022/03/09 04:36:39;;;;;;;1.10;1.10;;;1.20;99.90;;;;;;4979544;28;20676;-90
2022/03/09 04:39:06;;;;;;;1.53;1.43;;;1.20;99.90;;;;;;4977385;28;20223;-90
2022/03/09 04:41:32;;;;;;;2.13;1.93;;;1.20;99.90;;;;;;4978980;28;20669;-89
2022/03/09 04:43:57;;;;;;;2.13;1.90;;;1.10;99.90;;;;;;4962569;28;20240;-88
2022/03/09 04:46:23;;;;;;;1.97;1.87;;;1.10;99.90;;;;;;4996396;28;20235;-90
2022/03/09 04:48:49;;;;;;;3.60;2.30;;;1.10;99.90;;;;;;4996963;28;20578;-89
2022/03/09 04:51:16;;;;;;;2.27;2.07;;;1.10;99.90;;;;;;4979171;28;20274;-90
2022/03/09 04:53:42;;;;;;;2.17;1.73;;;1.20;99.90;;;;;;4980755;28;20238;-91
2022/03/09 04:56:08;;;;;;;2.50;2.27;;;1.20;99.90;;;;;;4980608;28;21048;-90
2022/03/09 04:58:34;;;;;;;1.53;1.43;;;1.00;99.90;;;;;;4980749;28;20274;-90
2022/03/09 05:00:59;;;;;;;2.97;1.13;;;1.00;99.90;;;;;;4981800;28;20675;-90
2022/03/09 05:03:25;;;;;;;1.07;1.07;;;0.90;99.90;;;;;;4998962;28;20231;-91
2022/03/09 05:05:51;;;;;;;1.63;1.53;;;0.90;99.90;;;;;;4979711;28;20264;-90
2022/03/09 05:08:17;;;;;;;2.70;1.70;;;0.90;99.90;;;;;;4998518;28;21037;-91
2022/03/09 05:10:42;;;;;;;2.13;1.47;;;0.90;99.90;;;;;;4982965;28;20274;-90
2022/03/09 05:13:08;;;;;;;3.90;2.57;;;0.90;99.90;;;;;;4980765;28;20264;-89
2022/03/09 05:15:37;;;;;;;2.07;1.97;;;0.90;99.90;;;;;;4962657;28;21256;-88
2022/03/09 05:18:03;;;;;;;3.37;1.90;;;0.90;99.90;;;;;;4995426;28;20216;-89
2022/03/09 05:20:29;;;;;;;2.43;2.23;;;1.00;99.90;;;;;;4964413;28;20223;-89
2022/03/09 05:22:55;;;;;;;3.60;2.10;;;1.00;99.90;;;;;;4980372;28;20203;-91
2022/03/09 05:25:22;;;;;;;0.90;0.90;;;0.90;99.90;;;;;;4981657;28;20195;-89
2022/03/09 05:27:48;;;;;;;1.60;1.30;;;1.00;99.90;;;;;;4979595;28;20219;-89
2022/03/09 05:30:14;;;;;;;2.87;2.60;;;1.00;99.90;;;;;;4997980;28;20219;-89
2022/03/09 05:32:40;;;;;;;2.80;1.97;;;1.00;99.90;;;;;;4966185;28;20645;-90
2022/03/09 05:35:07;;;;;;;4.73;1.33;;;0.90;99.90;;;;;;4998416;28;20254;-91
2022/03/09 05:37:37;;;;;;;4.63;1.60;;;0.90;99.90;;;;;;4979417;28;20203;-90
2022/03/09 05:40:07;;;;;;;1.40;1.30;;;0.90;99.90;;;;;;4975628;28;20612;-89
2022/03/09 05:42:33;;;;;;;3.00;2.87;;;0.90;99.90;;;;;;4978941;28;20618;-89
2022/03/09 05:44:59;;;;;;;1.60;1.50;;;0.80;99.90;;;;;;4979987;28;20207;-90
2022/03/09 05:47:24;;;;;;;1.10;1.10;;;0.80;99.90;;;;;;5011594;28;20692;-92
2022/03/09 05:49:50;;;;;;;1.57;1.47;;;0.90;99.90;;;;;;4998230;28;20652;-88
2022/03/09 05:52:16;;;;;;;1.70;1.47;;;0.80;99.90;;;;;;4990771;28;20314;-88
2022/03/09 05:54:42;;;;;;;1.83;1.40;;;0.80;99.90;;;;;;4988174;28;20226;-90
2022/03/09 05:57:07;;;;;;;1.00;1.00;;;0.80;99.90;;;;;;4990079;28;20226;-90
2022/03/09 05:59:33;;;;;;;1.73;1.63;;;0.70;99.90;;;;;;4969760;28;20237;-88
2022/03/09 06:01:59;;;;;;;1.57;1.37;;;0.70;99.90;;;;;;4988372;28;20547;-88
2022/03/09 06:04:25;;;;;;;3.60;2.23;;;0.70;99.90;;;;;;4975155;28;20281;-88
2022/03/09 06:06:51;;;;;;;4.10;1.53;;;0.70;99.90;;;;;;4973669;28;20226;-90
2022/03/09 06:09:17;;;;;;;2.23;1.40;;;0.70;99.90;;;;;;5005961;28;20229;-91
2022/03/09 06:11:43;;;;;;;0.90;0.90;;;0.70;99.90;;;;;;4988879;28;20235;-88
2022/03/09 06:14:09;;;;;;;1.77;1.37;;;0.80;99.90;;;;;;4988591;28;20227;-90
2022/03/09 06:16:35;;;;;;;2.53;2.33;;;0.90;99.90;;;;;;4987013;28;20274;-89
2022/03/09 06:19:00;;;;;;;3.33;1.97;;;1.10;99.90;;;;;;4986999;28;20225;-88
2022/03/09 06:21:26;;;;;;;1.83;1.73;;;1.40;99.90;;;;;;4971680;28;20272;-89
2022/03/09 06:23:52;;;;;;;2.33;2.13;;;1.70;99.90;;;;;;4987880;28;20238;-89
2022/03/09 06:26:17;;;;;;;2.27;2.07;;;2.00;99.90;;;;;;5006587;28;20238;-90
2022/03/09 06:28:43;;;;;;;1.20;1.20;;;2.40;99.90;;;;;;4988874;28;20209;-89
2022/03/09 06:31:11;;;;;;;1.93;1.83;;;2.70;99.90;;;;;;4989409;28;20810;-87
2022/03/09 06:33:37;;;;;;;2.13;2.03;;;2.80;99.90;;;;;;5004807;28;20223;-90
2022/03/09 06:36:06;;;;;;;1.97;1.43;;;3.00;99.90;;;;;;5005569;28;20222;-91
2022/03/09 06:38:33;;;;;;;1.97;1.87;;;3.20;99.90;;;;;;4999882;28;20242;-87
2022/03/09 06:40:58;;;;;;;3.30;2.27;;;3.30;99.90;;;;;;4985890;28;20711;-90
2022/03/09 06:43:24;;;;;;;2.20;1.90;;;3.40;99.90;;;;;;4994654;28;20207;-87
2022/03/09 06:45:50;;;;;;;2.20;2.00;;;3.60;99.90;;;;;;4987918;28;20222;-88
2022/03/09 06:48:16;;;;;;;1.93;1.77;;;3.80;99.90;;;;;;5005401;28;20719;-88
2022/03/09 06:50:42;;;;;;;2.13;2.03;;;4.30;99.90;;;;;;5005613;28;20215;-87
2022/03/09 06:53:07;;;;;;;1.80;1.27;;;4.50;99.90;;;;;;5006480;28;20235;-89
2022/03/09 06:55:34;;;;;;;5.20;2.30;;;4.80;99.90;;;;;;4988198;28;20198;-88
2022/03/09 06:57:59;;;;;;;5.27;2.47;;;4.90;99.90;;;;;;4988001;28;20568;-89
2022/03/09 07:00:25;;;;;;;1.93;1.77;;;5.20;99.90;;;;;;4989337;28;20219;-89
2022/03/09 07:02:51;;;;;;;3.03;2.03;;;5.50;99.90;;;;;;5004200;28;20671;-89
2022/03/09 07:05:17;;;;;;;1.57;1.53;;;6.00;99.90;;;;;;4987720;28;20281;-88
2022/03/09 07:07:43;;;;;;;3.33;1.93;;;5.80;99.90;;;;;;4987861;28;20198;-90
2022/03/09 07:10:12;;;;;;;2.33;2.13;;;5.60;99.90;;;;;;4986348;28;20230;-88
2022/03/09 07:12:40;;;;;;;4.63;2.97;;;5.60;99.90;;;;;;4988576;28;20237;-88
2022/03/09 07:15:06;;;;;;;2.37;2.20;;;6.00;99.90;;;;;;5004826;28;20306;-92
2022/03/09 07:17:32;;;;;;;4.77;4.37;;;5.90;99.90;;;;;;4989816;28;20227;-90
2022/03/09 07:19:58;;;;;;;3.47;2.03;;;5.80;99.90;;;;;;5007126;28;20195;-93
2022/03/09 07:22:23;;;;;;;11.13;3.57;;;5.50;99.90;;;;;;4988898;28;20667;-90
2022/03/09 07:24:49;;;;;;;3.00;2.40;;;5.30;99.90;;;;;;5004824;28;20218;-91
2022/03/09 07:27:15;;;;;;;2.40;2.23;;;5.50;99.90;;;;;;4988890;28;20215;-90
2022/03/09 07:29:41;;;;;;;4.07;2.90;;;5.40;99.90;;;;;;5003346;28;20269;-89
2022/03/09 07:32:08;;;;;;;3.27;2.53;;;5.20;99.90;;;;;;5004895;28;20246;-90
2022/03/09 07:34:34;;;;;;;4.20;2.27;;;4.80;99.90;;;;;;4989621;28;20582;-90
2022/03/09 07:37:00;;;;;;;5.97;1.87;;;4.80;99.90;;;;;;5004628;28;20211;-91
2022/03/09 07:39:29;;;;;;;2.27;1.80;;;5.10;99.90;;;;;;4989605;28;20738;-92
2022/03/09 07:41:56;;;;;;;3.20;2.47;;;5.30;99.90;;;;;;4990369;28;20277;-92
2022/03/09 07:44:23;;;;;;;1.77;1.67;;;5.80;99.90;;;;;;5004980;28;20235;-91
2022/03/09 07:46:49;;;;;;;1.60;1.50;;;6.20;99.90;;;;;;5021238;28;20289;-87
2022/03/09 07:49:17;;;;;;;3.70;2.70;;;6.80;99.90;;;;;;5006243;28;20269;-88
2022/03/09 07:51:43;;;;;;;3.30;1.80;;;7.00;99.90;;;;;;5027115;28;20288;-88
2022/03/09 07:54:09;;;;;;;5.87;2.63;;;7.40;99.90;;;;;;4994357;28;20680;-87
2022/03/09 07:56:35;;;;;;;3.00;2.77;;;7.50;99.90;;;;;;5010469;28;20222;-88
2022/03/09 07:59:05;;;;;;;5.27;3.60;;;7.90;99.90;;;;;;4993351;28;20207;-89
2022/03/09 08:01:31;;;;;;;3.20;2.90;;;7.90;99.90;;;;;;4993127;28;20194;-91
2022/03/09 08:03:56;;;;;;;5.50;2.83;;;8.10;99.90;;;;;;5010486;28;20226;-86
2022/03/09 08:06:22;;;;;;;3.53;2.70;;;7.80;99.90;;;;;;5013761;28;20279;-88
2022/03/09 08:08:48;;;;;;;4.07;2.53;;;7.40;99.90;;;;;;5010561;28;20225;-92
2022/03/09 08:11:14;;;;;;;6.27;3.63;;;7.70;99.90;;;;;;5011180;28;20214;-92
2022/03/09 08:13:40;;;;;;;2.97;2.57;;;8.30;99.90;;;;;;5010992;28;20219;-87
2022/03/09 08:16:07;;;;;;;5.17;2.93;;;8.40;99.90;;;;;;4992921;28;20264;-91
2022/03/09 08:18:33;;;;;;;2.97;2.37;;;8.20;99.90;;;;;;5010232;28;20349;-83
2022/03/09 08:20:59;;;;;;;5.33;3.13;;;7.90;99.90;;;;;;4993118;28;20261;-89
2022/03/09 08:23:27;;;;;;;4.70;3.43;;;7.90;99.90;;;;;;5006217;28;20301;-90
2022/03/09 08:25:56;;;;;;;2.90;2.60;;;8.30;99.90;;;;;;5010511;28;20190;-92
2022/03/09 08:28:22;;;;;;;4.07;2.87;;;8.40;99.90;;;;;;4978851;28;20996;-92
2022/03/09 08:30:47;;;;;;;6.97;2.63;;;8.40;99.90;;;;;;5006152;28;20214;-88
2022/03/09 08:33:14;;;;;;;3.73;2.60;;;8.70;99.90;;;;;;4990732;28;20214;-92
2022/03/09 08:35:40;;;;;;;2.37;2.17;;;8.50;99.90;;;;;;5010459;28;20230;-93
2022/03/09 08:38:06;;;;;;;6.10;3.70;;;8.20;99.90;;;;;;5009696;28;20277;-93
2022/03/09 08:40:32;;;;;;;2.13;1.93;;;8.10;99.90;;;;;;4994585;28;20990;-91
2022/03/09 08:42:58;;;;;;;2.87;2.43;;;8.40;99.90;;;;;;5030879;28;20219;-93
2022/03/09 08:45:24;;;;;;;3.87;2.90;;;8.40;99.90;;;;;;5009413;28;21331;-93
2022/03/09 08:47:49;;;;;;;2.27;2.07;;;8.40;99.90;;;;;;5018810;28;20278;-90
2022/03/09 08:50:15;;;;;;;4.10;3.03;;;8.30;99.90;;;;;;4991464;28;20223;-91
2022/03/09 08:52:41;;;;;;;3.33;2.87;;;8.70;99.90;;;;;;5007653;28;20195;-90
2022/03/09 08:55:07;;;;;;;3.20;2.63;;;8.70;99.90;;;;;;5007217;28;20227;-90
2022/03/09 08:57:33;;;;;;;5.53;3.17;;;8.90;99.90;;;;;;5007281;28;20244;-89
2022/03/09 09:00:03;;;;;;;2.70;2.40;;;9.30;99.90;;;;;;5006354;28;20211;-89
2022/03/09 09:02:29;;;;;;;2.70;2.13;;;9.70;99.90;;;;;;5006290;28;20245;-90
2022/03/09 09:04:55;;;;;;;4.13;2.53;;;9.40;99.90;;;;;;5007423;28;20314;-91
2022/03/09 09:07:22;;;;;;;4.73;2.40;;;9.00;99.90;;;;;;5008712;28;20195;-91
2022/03/09 09:09:48;;;;;;;2.73;2.30;;;8.60;99.90;;;;;;4990469;28;20230;-92
2022/03/09 09:12:14;;;;;;;2.63;2.07;;;7.90;99.90;;;;;;5006516;28;21033;-91
2022/03/09 09:14:40;;;;;;;2.60;2.40;;;7.80;99.90;;;;;;5000052;28;20218;-92
2022/03/09 09:17:06;;;;;;;3.40;2.37;;;7.80;99.90;;;;;;4997785;28;20229;-89
2022/03/09 09:19:33;;;;;;;4.33;2.80;;;8.00;99.90;;;;;;4991109;28;20195;-91
2022/03/09 09:21:59;;;;;;;3.83;3.10;;;7.90;99.90;;;;;;5007190;28;20211;-91
2022/03/09 09:24:25;;;;;;;3.20;1.80;;;7.80;99.90;;;;;;4990418;28;20211;-94
2022/03/09 09:26:50;;;;;;;5.93;3.40;;;8.10;99.90;;;;;;4990928;28;20233;-92
2022/03/09 09:29:16;;;;;;;4.53;3.33;;;7.90;99.90;;;;;;4991917;28;20293;-90
2022/03/09 09:31:42;;;;;;;7.53;3.00;;;7.90;99.90;;;;;;5007415;28;20279;-89
2022/03/09 09:34:08;;;;;;;5.27;2.47;;;7.90;99.90;;;;;;5006290;28;20223;-90
2022/03/09 09:36:38;;;;;;;2.30;1.80;;;7.70;99.90;;;;;;4989535;28;20235;-90
2022/03/09 09:39:04;;;;;;;3.23;2.03;;;7.90;99.90;;;;;;4989516;28;20815;-90
2022/03/09 09:41:33;;;;;;;4.07;3.23;;;7.90;99.90;;;;;;4998719;28;20306;-92
2022/03/09 09:43:59;;;;;;;4.57;2.47;;;7.70;99.90;;;;;;5007219;28;20214;-93
2022/03/09 09:46:25;;;;;;;1.87;1.67;;;7.80;99.90;;;;;;5014752;28;20239;-91
2022/03/09 09:48:51;;;;;;;3.63;2.37;;;7.90;99.90;;;;;;4990511;28;20597;-94
2022/03/09 09:51:17;;;;;;;4.40;4.10;;;8.00;99.90;;;;;;4973798;28;20225;-94
2022/03/09 09:53:44;;;;;;;3.10;2.50;;;8.00;99.90;;;;;;4990213;28;20313;-93
2022/03/09 09:56:13;;;;;;;4.03;3.43;;;8.20;99.90;;;;;;5017901;28;20218;-88
2022/03/09 09:58:42;;;;;;;5.13;1.63;;;8.10;99.90;;;;;;5009842;28;20187;-91
2022/03/09 10:01:09;;;;;;;4.03;1.97;;;8.20;99.90;;;;;;5005658;28;20236;-92
2022/03/09 10:03:35;;;;;;;2.47;2.17;;;8.60;99.90;;;;;;4990855;28;20317;-90
2022/03/09 10:06:01;;;;;;;2.60;1.77;;;8.70;99.90;;;;;;5004442;28;20227;-92
2022/03/09 10:08:27;;;;;;;7.43;2.30;;;8.80;99.90;;;;;;5007237;28;20280;-92
2022/03/09 10:10:59;;;;;;;4.57;3.27;;;8.80;99.90;;;;;;4974584;28;20201;-90
2022/03/09 10:13:26;;;;;;;2.53;2.23;;;9.20;99.90;;;;;;5016110;28;20226;-92
2022/03/09 10:16:20;;;;;;;4.03;1.67;;;9.40;99.90;;;;;;5020187;28;20222;-92
2022/03/09 10:18:56;;;;;;;2.20;1.47;;;9.70;99.90;;;;;;5019468;28;20706;-90
2022/03/09 10:21:26;;;;;;;3.13;1.97;;;10.10;99.90;;;;;;5011523;28;20278;-93
2022/03/09 10:23:54;;;;;;;4.13;1.73;;;10.60;99.90;;;;;;5010896;28;20222;-94
2022/03/09 10:26:23;;;;;;;3.33;3.00;;;10.60;99.90;;;;;;5021069;28;20212;-91
2022/03/09 10:29:02;;;;;;;2.40;2.13;;;11.10;99.90;;;;;;4992707;28;20432;-93
2022/03/09 10:31:37;;;;;;;2.90;2.10;;;10.90;99.90;;;;;;5019696;28;20269;-93
2022/03/09 10:34:05;;;;;;;4.03;2.83;;;10.80;99.90;;;;;;5012421;28;20210;-93
2022/03/09 10:36:30;;;;;;;6.60;3.13;;;10.90;99.90;;;;;;5011061;28;20237;-93
2022/03/09 10:39:13;;;;;;;7.43;3.50;;;11.80;99.90;;;;;;5008091;28;20227;-92
2022/03/09 10:41:39;;;;;;;4.33;2.77;;;12.30;99.90;;;;;;5010593;28;20265;-92
2022/03/09 10:44:04;;;;;;;6.67;3.23;;;12.50;99.90;;;;;;4989147;28;20308;-92
2022/03/09 10:46:48;;;;;;;4.53;3.50;;;11.90;99.90;;;;;;5000301;28;20270;-92
2022/03/09 10:49:19;;;;;;;4.97;3.23;;;12.20;99.90;;;;;;4998725;28;20215;-89
2022/03/09 10:51:51;;;;;;;4.23;3.10;;;12.50;99.90;;;;;;5001080;28;20219;-93
2022/03/09 10:54:25;;;;;;;5.90;4.00;;;12.40;99.90;;;;;;4980660;28;20254;-91
2022/03/09 10:57:03;;;;;;;4.33;2.60;;;11.90;99.90;;;;;;4976336;28;20270;-91
2022/03/09 10:59:49;;;;;;;6.20;3.17;;;11.70;99.90;;;;;;4995692;28;20315;-91
2022/03/09 11:02:19;;;;;;;6.33;3.87;;;11.40;99.90;;;;;;4985111;28;20286;-92
2022/03/09 11:05:09;;;;;;;6.07;3.73;;;11.80;99.90;;;;;;4976667;28;20195;-90
2022/03/09 11:07:39;;;;;;;4.80;3.47;;;12.20;99.90;;;;;;4992909;28;20714;-93
2022/03/09 11:10:08;;;;;;;4.20;2.97;;;12.10;99.90;;;;;;4995201;28;20221;-91
2022/03/09 11:12:35;;;;;;;7.93;3.50;;;11.90;99.90;;;;;;4992975;28;20218;-90
2022/03/09 11:15:01;;;;;;;4.53;3.17;;;12.20;99.90;;;;;;4947964;28;20223;-91
2022/03/09 11:17:27;;;;;;;9.60;4.43;;;13.40;99.90;;;;;;4994681;28;20294;-89
2022/03/09 11:19:53;;;;;;;7.40;4.00;;;12.90;99.90;;;;;;4977616;28;20192;-91
2022/03/09 11:22:19;;;;;;;5.63;3.40;;;12.80;99.90;;;;;;4962202;28;20192;-91
2022/03/09 11:24:45;;;;;;;6.87;4.27;;;12.70;99.90;;;;;;4979712;28;20215;-93
2022/03/09 11:27:12;;;;;;;8.30;3.80;;;13.10;99.90;;;;;;4983056;28;20216;-91
2022/03/09 11:29:40;;;;;;;6.13;3.80;;;13.30;99.90;;;;;;4965215;28;20345;-91
2022/03/09 11:32:14;;;;;;;4.83;3.50;;;12.60;99.90;;;;;;4980428;28;20226;-92
2022/03/09 11:34:41;;;;;;;5.17;2.73;;;12.40;99.90;;;;;;4984160;28;20223;-90
2022/03/09 11:37:38;;;;;;;4.67;3.30;;;12.30;99.90;;;;;;4979333;28;20554;-90
2022/03/09 11:40:08;;;;;;;7.43;4.23;;;12.30;99.90;;;;;;4976850;28;20629;-91
2022/03/09 11:42:44;;;;;;;8.93;4.17;;;12.00;99.90;;;;;;4981043;28;20566;-91
2022/03/09 11:45:37;;;;;;;4.90;3.53;;;12.00;99.90;;;;;;4996854;28;20222;-93
2022/03/09 11:48:05;;;;;;;4.00;3.43;;;12.00;99.90;;;;;;4998476;28;20591;-91
2022/03/09 11:50:57;;;;;;;4.10;3.70;;;11.90;99.90;;;;;;4997647;28;20222;-90
2022/03/09 11:53:56;;;;;;;6.47;3.47;;;11.90;99.90;;;;;;4986670;28;20244;-91
2022/03/09 11:56:39;;;;;;;3.10;2.80;;;11.90;99.90;;;;;;4947666;28;20219;-89
2022/03/09 11:59:27;;;;;;;7.20;3.70;;;12.00;99.90;;;;;;4997954;28;20227;-90
2022/03/09 12:02:00;;;;;;;4.30;3.20;;;12.00;99.90;;;;;;4999930;28;20196;-91
2022/03/09 12:04:46;;;;;;;5.43;3.70;;;11.80;99.90;;;;;;5000862;28;20199;-89
2022/03/09 12:07:13;;;;;;;3.33;2.63;;;11.80;99.90;;;;;;4983257;28;20266;-89
2022/03/09 12:09:58;;;;;;;3.27;2.73;;;11.70;99.90;;;;;;4986052;28;20212;-92
2022/03/09 12:12:28;;;;;;;4.90;3.97;;;11.80;99.90;;;;;;4968888;28;20226;-92
2022/03/09 12:15:14;;;;;;;5.00;3.33;;;11.80;99.90;;;;;;4984797;28;20283;-92
2022/03/09 12:17:43;;;;;;;4.27;3.53;;;11.80;99.90;;;;;;4981664;28;20223;-90
2022/03/09 12:20:23;;;;;;;5.97;3.53;;;11.90;99.90;;;;;;4981667;28;20243;-90
2022/03/09 12:23:00;;;;;;;6.03;4.20;;;11.80;99.90;;;;;;4998637;28;20188;-91
2022/03/09 12:25:49;;;;;;;6.07;3.73;;;12.00;99.90;;;;;;4982422;28;20196;-91
2022/03/09 12:28:24;;;;;;;4.27;2.47;;;12.00;99.90;;;;;;4967090;28;20275;-91
2022/03/09 12:30:53;;;;;;;6.00;3.80;;;12.00;99.90;;;;;;4982352;28;20212;-92
2022/03/09 12:33:36;;;;;;;6.37;3.73;;;12.10;99.90;;;;;;4982771;28;20223;-90
2022/03/09 12:36:05;;;;;;;3.93;3.00;;;11.90;99.90;;;;;;4979942;28;20203;-89
2022/03/09 12:38:45;;;;;;;6.73;3.90;;;12.00;99.90;;;;;;4998830;28;20271;-93
2022/03/09 12:41:38;;;;;;;4.00;2.70;;;12.00;99.90;;;;;;4966897;28;21161;-88
2022/03/09 12:44:09;;;;;;;10.10;2.67;;;12.20;99.90;;;;;;5004073;28;20219;-92
2022/03/09 12:46:38;;;;;;;6.17;2.60;;;12.20;99.90;;;;;;4991140;28;20970;-89
2022/03/09 12:49:05;;;;;;;4.97;3.07;;;12.00;99.90;;;;;;4998546;28;20243;-89
2022/03/09 12:51:32;;;;;;;7.10;3.30;;;11.80;99.90;;;;;;4999409;28;20247;-91
2022/03/09 12:53:58;;;;;;;6.03;4.20;;;11.80;99.90;;;;;;4983665;28;20230;-90
2022/03/09 12:56:25;;;;;;;5.13;3.43;;;12.00;99.90;;;;;;4996655;28;20227;-84
2022/03/09 12:58:53;;;;;;;3.63;2.70;;;12.10;99.90;;;;;;5004369;28;20282;-89